Time;durP1;ratioP1;P1;durP2;ratioP2;P2;SDS_P1;SDS_P2;PMS_P1;PMS_P2;Temp;Humidity;BMP_temperature;BMP_pressure;BME280_temperature;BME280_humidity;BME280_pressure;Samples;Min_cycle;Max_cycle;Signal;HPM_P1;HPM_P2
2022/10/16 00:01:46;;;;;;;8.05;6.03;;;;;;;6.81;59.73;100876.83;1793559;78;21045;-77
2022/10/16 00:04:13;;;;;;;10.55;6.03;;;;;;;6.78;59.76;100880.17;1794956;78;21474;-77
2022/10/16 00:06:39;;;;;;;10.00;5.92;;;;;;;6.75;59.80;100874.66;1824325;78;21033;-78
2022/10/16 00:09:06;;;;;;;10.35;6.35;;;;;;;6.74;59.91;100877.41;1825915;78;22033;-78
2022/10/16 00:11:36;;;;;;;10.25;6.30;;;;;;;6.72;59.90;100878.00;1793660;78;21068;-80
2022/10/16 00:14:08;;;;;;;9.95;6.35;;;;;;;6.70;59.93;100876.78;1793737;79;20997;-77
2022/10/16 00:16:35;;;;;;;8.35;6.05;;;;;;;6.71;60.02;100880.30;1795246;78;21217;-78
2022/10/16 00:19:02;;;;;;;8.88;6.53;;;;;;;6.68;59.96;100880.89;1797040;78;21014;-79
2022/10/16 00:21:30;;;;;;;8.05;5.87;;;;;;;6.67;60.13;100879.67;1824284;78;21046;-79
2022/10/16 00:24:04;;;;;;;10.30;6.10;;;;;;;6.65;60.21;100874.99;1816940;78;21943;-79
2022/10/16 00:26:31;;;;;;;;;;;;;;;6.62;60.17;100873.89;1796917;80;21045;-78
2022/10/16 00:28:57;;;;;;;8.08;6.00;;;;;;;6.61;60.27;100877.50;1779925;78;21070;-78
2022/10/16 00:31:25;;;;;;;11.18;6.37;;;;;;;6.57;60.38;100874.24;1828286;77;21006;-78
2022/10/16 00:33:52;;;;;;;8.20;6.05;;;;;;;6.56;60.36;100880.95;1794054;80;21061;-78
2022/10/16 00:36:21;;;;;;;9.63;6.15;;;;;;;6.55;60.41;100882.76;1794390;80;21040;-78
2022/10/16 00:38:52;;;;;;;11.60;6.85;;;;;;;6.54;60.52;100882.87;1793885;79;21057;-77
2022/10/16 00:41:19;;;;;;;7.33;5.70;;;;;;;6.53;60.51;100882.03;1820543;77;21197;-77
2022/10/16 00:43:52;;;;;;;8.23;6.08;;;;;;;6.53;60.62;100882.48;1863856;76;20935;-77
2022/10/16 00:46:22;;;;;;;;;;;;;;;6.50;60.58;100879.12;1864574;77;21009;-78
2022/10/16 00:49:11;;;;;;;8.15;5.62;;;;;;;6.49;60.60;100889.33;1859877;77;20180;-76
2022/10/16 00:51:42;;;;;;;10.28;6.58;;;;;;;6.48;60.63;100888.13;1812476;78;20997;-78
2022/10/16 00:54:18;;;;;;;9.78;6.17;;;;;;;6.47;60.65;100891.70;1833982;77;21376;-78
2022/10/16 00:56:45;;;;;;;12.30;6.80;;;;;;;6.46;60.66;100900.11;1806845;77;21020;-77
2022/10/16 00:59:18;;;;;;;11.55;6.72;;;;;;;6.45;60.73;100902.40;1793671;79;21060;-78
2022/10/16 01:01:44;;;;;;;10.55;6.87;;;;;;;6.44;60.73;100900.70;1804486;78;21577;-77
2022/10/16 01:04:10;;;;;;;10.00;6.58;;;;;;;6.44;60.76;100901.19;1833698;77;21034;-77
2022/10/16 01:06:43;;;;;;;8.05;6.20;;;;;;;6.44;60.73;100903.83;1859784;77;21611;-77
2022/10/16 01:09:21;;;;;;;9.87;6.20;;;;;;;6.44;60.77;100898.06;1839680;76;21002;-76
2022/10/16 01:12:27;;;;;;;9.75;6.17;;;;;;;6.44;60.82;100907.30;1793565;80;21036;-79
2022/10/16 01:15:20;;;;;;;11.22;7.22;;;;;;;6.43;60.89;100904.77;1821469;78;21065;-79
2022/10/16 01:17:59;;;;;;;9.83;6.72;;;;;;;6.40;60.91;100903.20;1826097;78;21017;-78
2022/10/16 01:20:39;;;;;;;9.83;6.30;;;;;;;6.37;61.04;100904.73;1808977;77;21509;-78
2022/10/16 01:23:23;;;;;;;13.45;7.83;;;;;;;6.36;61.06;100907.03;1793016;79;21267;-78
2022/10/16 01:26:18;;;;;;;10.08;5.97;;;;;;;6.34;61.10;100903.66;1804172;77;21049;-78
2022/10/16 01:29:04;;;;;;;10.25;6.53;;;;;;;6.32;61.12;100909.98;1793677;79;21042;-76
2022/10/16 01:31:33;;;;;;;8.55;6.42;;;;;;;6.32;61.21;100913.94;1793663;79;21009;-79
2022/10/16 01:34:05;;;;;;;8.38;6.17;;;;;;;6.30;61.28;100912.76;1795949;78;21060;-79
2022/10/16 01:36:37;;;;;;;9.58;6.65;;;;;;;6.29;61.25;100917.17;1814967;78;20975;-78
2022/10/16 01:39:05;;;;;;;10.40;6.90;;;;;;;6.27;61.30;100915.61;1826809;77;21025;-77
2022/10/16 01:41:35;;;;;;;9.13;5.70;;;;;;;6.26;61.39;100919.22;1803807;77;21052;-78
2022/10/16 01:44:10;;;;;;;9.48;6.22;;;;;;;6.25;61.41;100920.16;1805684;78;21017;-78
2022/10/16 01:46:39;;;;;;;13.20;7.03;;;;;;;6.24;61.43;100923.77;1793459;80;21565;-79
2022/10/16 01:49:06;;;;;;;10.45;6.12;;;;;;;6.23;61.45;100917.63;1798314;78;21680;-78
2022/10/16 01:51:34;;;;;;;10.30;6.47;;;;;;;6.23;61.49;100922.91;1824949;78;20987;-80
2022/10/16 01:54:01;;;;;;;8.80;5.97;;;;;;;6.23;61.51;100919.43;1819593;78;21013;-78
2022/10/16 01:56:28;;;;;;;11.30;6.12;;;;;;;6.22;61.52;100919.05;1790913;78;20998;-79
2022/10/16 01:58:59;;;;;;;12.03;6.50;;;;;;;6.20;61.53;100923.14;1788668;80;21090;-78
2022/10/16 02:01:27;;;;;;;9.35;6.28;;;;;;;6.19;61.67;100921.92;1797773;77;21553;-78
2022/10/16 02:03:54;;;;;;;9.50;6.45;;;;;;;6.17;61.78;100930.44;1854324;76;21021;-79
2022/10/16 02:06:22;;;;;;;8.90;6.60;;;;;;;6.15;61.83;100933.17;1854109;76;21451;-79
2022/10/16 02:08:50;;;;;;;9.58;6.90;;;;;;;6.13;61.91;100933.77;1798992;76;20993;-77
2022/10/16 02:11:16;;;;;;;9.03;6.45;;;;;;;6.10;62.09;100936.61;1788614;79;21097;-78
2022/10/16 02:13:59;;;;;;;10.58;7.17;;;;;;;6.07;62.06;100939.00;1797790;78;20998;-77
2022/10/16 02:16:43;;;;;;;8.60;6.72;;;;;;;6.05;62.11;100931.67;1777480;80;21017;-79
2022/10/16 02:19:14;;;;;;;12.55;6.33;;;;;;;6.04;62.13;100930.45;1818236;78;21485;-80
2022/10/16 02:21:48;;;;;;;9.90;6.53;;;;;;;6.02;62.22;100936.33;1802153;78;21029;-79
2022/10/16 02:24:27;;;;;;;11.57;7.15;;;;;;;6.01;62.32;100934.66;1790149;80;21166;-78
2022/10/16 02:27:05;;;;;;;10.40;7.10;;;;;;;5.99;62.30;100938.72;1821586;77;20943;-78
2022/10/16 02:29:32;;;;;;;9.35;6.85;;;;;;;5.97;62.56;100939.30;1821870;77;21052;-79
2022/10/16 02:32:01;;;;;;;12.07;7.35;;;;;;;5.95;62.51;100938.57;1820538;78;21049;-76
2022/10/16 02:34:28;;;;;;;10.48;7.22;;;;;;;5.94;62.52;100936.00;1821008;78;21046;-78
2022/10/16 02:36:55;;;;;;;9.20;6.03;;;;;;;5.94;62.61;100935.52;1791276;77;22022;-78
2022/10/16 02:39:22;;;;;;;12.95;7.20;;;;;;;5.94;62.67;100939.47;1818857;78;21517;-78
2022/10/16 02:41:48;;;;;;;10.08;7.30;;;;;;;5.94;62.72;100943.43;1820532;78;20987;-79
2022/10/16 02:44:15;;;;;;;9.88;6.62;;;;;;;5.93;62.85;100944.40;1820670;78;21077;-80
2022/10/16 02:46:41;;;;;;;12.18;7.03;;;;;;;5.93;62.85;100949.67;1796009;77;21017;-78
2022/10/16 02:49:08;;;;;;;10.38;7.35;;;;;;;5.92;63.04;100944.02;1796487;78;21223;-77
2022/10/16 02:51:35;;;;;;;9.48;7.85;;;;;;;5.91;63.14;100948.94;1830152;77;21033;-77
2022/10/16 02:54:02;;;;;;;13.38;8.60;;;;;;;5.91;63.33;100948.94;1803512;78;21025;-79
2022/10/16 02:56:29;;;;;;;12.05;7.50;;;;;;;5.91;63.45;100949.78;1790147;80;21584;-79
2022/10/16 02:58:56;;;;;;;13.72;8.88;;;;;;;5.92;63.62;100949.29;1793966;80;21001;-78
2022/10/16 03:01:23;;;;;;;14.47;9.30;;;;;;;5.93;64.01;100953.63;1801569;77;21116;-79
2022/10/16 03:03:50;;;;;;;18.35;9.05;;;;;;;5.92;64.32;100954.56;1825945;78;21616;-79
2022/10/16 03:06:16;;;;;;;13.00;9.98;;;;;;;5.91;64.75;100958.17;1826196;78;21532;-78
2022/10/16 03:08:43;;;;;;;12.63;9.68;;;;;;;5.89;64.94;100955.64;1826152;78;20998;-78
2022/10/16 03:11:11;;;;;;;13.95;8.85;;;;;;;5.89;65.37;100961.36;1818697;78;21014;-78
2022/10/16 03:13:39;;;;;;;16.17;8.83;;;;;;;5.85;65.56;100963.40;1807322;77;21106;-79
2022/10/16 03:16:06;;;;;;;12.73;8.55;;;;;;;5.84;65.69;100964.82;1862981;76;20888;-78
2022/10/16 03:18:33;;;;;;;11.85;8.33;;;;;;;5.83;65.79;100963.12;1860041;77;20942;-78
2022/10/16 03:20:59;;;;;;;10.78;7.20;;;;;;;5.86;65.82;100966.39;1826996;78;21045;-79
2022/10/16 03:23:26;;;;;;;12.15;7.05;;;;;;;6.04;65.81;100973.50;1815922;77;20985;-77
2022/10/16 03:25:53;;;;;;;15.10;7.55;;;;;;;6.09;65.75;100974.52;1808783;77;21474;-78
2022/10/16 03:28:20;;;;;;;10.43;6.97;;;;;;;6.06;65.89;100973.41;1859701;76;20967;-77
2022/10/16 03:30:47;;;;;;;14.18;6.65;;;;;;;6.03;65.85;100976.28;1859787;77;20994;-79
2022/10/16 03:33:13;;;;;;;10.30;7.55;;;;;;;6.01;66.01;100976.86;1859861;76;21013;-78
2022/10/16 03:35:41;;;;;;;9.68;7.20;;;;;;;5.99;65.92;100973.45;1821327;76;21017;-80
2022/10/16 03:38:08;;;;;;;10.13;6.72;;;;;;;5.95;65.91;100974.59;1816591;77;21439;-78
2022/10/16 03:40:36;;;;;;;10.65;7.53;;;;;;;5.92;65.87;100975.67;1819671;78;21052;-79
2022/10/16 03:43:02;;;;;;;11.48;7.22;;;;;;;5.88;66.14;100978.16;1793866;80;21029;-78
2022/10/16 03:45:28;;;;;;;9.90;7.35;;;;;;;5.83;66.09;100980.26;1793654;80;21799;-78
2022/10/16 03:47:57;;;;;;;10.00;7.03;;;;;;;5.79;66.13;100978.80;1793599;79;21021;-78
2022/10/16 03:50:23;;;;;;;11.12;6.50;;;;;;;5.74;66.16;100975.17;1802886;77;21121;-79
2022/10/16 03:52:50;;;;;;;8.68;7.22;;;;;;;5.69;66.32;100976.79;1793664;79;21534;-78
2022/10/16 03:55:16;;;;;;;11.75;6.85;;;;;;;5.64;66.33;100975.42;1793670;80;20974;-78
2022/10/16 03:57:43;;;;;;;10.30;6.75;;;;;;;5.60;66.38;100967.36;1785039;78;21061;-77
2022/10/16 04:00:11;;;;;;;10.82;7.53;;;;;;;5.57;66.42;100965.78;1782591;80;21174;-78
2022/10/16 04:02:41;;;;;;;9.13;7.30;;;;;;;5.55;66.62;100976.08;1805861;79;21078;-78
2022/10/16 04:05:07;;;;;;;12.93;7.45;;;;;;;5.53;66.59;100978.81;1799483;78;21470;-79
2022/10/16 04:07:36;;;;;;;9.95;6.95;;;;;;;5.53;66.60;100979.30;1784069;79;20986;-78
2022/10/16 04:10:03;;;;;;;9.13;6.50;;;;;;;5.67;66.48;100980.00;1784436;80;21112;-78
2022/10/16 04:12:31;;;;;;;9.50;6.92;;;;;;;5.74;66.39;100987.03;1783195;79;21018;-79
2022/10/16 04:14:59;;;;;;;12.30;6.78;;;;;;;5.72;66.36;100978.39;1842630;77;21140;-78
2022/10/16 04:17:25;;;;;;;9.40;7.08;;;;;;;5.71;66.34;100978.00;1848023;77;21010;-76
2022/10/16 04:19:52;;;;;;;9.93;7.25;;;;;;;5.72;66.25;100973.12;1809864;76;21002;-78
2022/10/16 04:22:18;;;;;;;10.58;7.42;;;;;;;5.71;66.19;100977.52;1807743;79;20937;-78
2022/10/16 04:24:46;;;;;;;10.68;7.45;;;;;;;5.70;66.14;100978.97;1807255;79;21481;-78
2022/10/16 04:27:12;;;;;;;11.43;7.55;;;;;;;5.67;66.15;100981.33;1813195;79;21502;-78
2022/10/16 04:29:39;;;;;;;10.35;6.90;;;;;;;5.65;66.30;100982.39;1799391;79;21552;-78
2022/10/16 04:32:08;;;;;;;12.10;7.37;;;;;;;5.60;66.36;100986.67;1782680;80;21529;-78
2022/10/16 04:34:34;;;;;;;9.58;7.85;;;;;;;5.56;66.58;100997.03;1772179;80;21558;-78
2022/10/16 04:37:00;;;;;;;10.90;7.85;;;;;;;5.52;66.62;100999.52;1782770;79;21033;-79
2022/10/16 04:39:41;;;;;;;11.97;7.35;;;;;;;5.50;66.66;101010.64;1813437;79;21137;-78
2022/10/16 04:42:08;;;;;;;13.35;7.53;;;;;;;5.46;66.78;101010.48;1701639;83;21101;-78
2022/10/16 04:44:36;;;;;;;12.23;7.40;;;;;;;5.44;67.04;101015.02;1724875;82;21006;-78
2022/10/16 04:47:04;;;;;;;15.32;7.65;;;;;;;5.41;67.02;101022.66;1725211;82;21554;-79
2022/10/16 04:49:31;;;;;;;9.33;6.87;;;;;;;5.41;67.17;101026.62;1702487;83;21868;-78
2022/10/16 04:51:57;;;;;;;9.40;6.25;;;;;;;5.48;67.20;101028.34;1721785;83;21756;-77
2022/10/16 04:54:24;;;;;;;11.90;6.80;;;;;;;5.63;67.10;101036.53;1724759;83;21119;-77
2022/10/16 04:56:51;;;;;;;11.22;7.12;;;;;;;5.65;67.16;101032.48;1726329;82;20935;-78
2022/10/16 04:59:20;;;;;;;11.60;7.10;;;;;;;5.65;67.19;101035.95;1729104;82;20975;-78
2022/10/16 05:01:46;;;;;;;12.58;7.50;;;;;;;5.66;67.23;101040.30;1720697;83;21526;-78
2022/10/16 05:04:14;;;;;;;11.80;7.47;;;;;;;5.67;67.20;101039.33;1701454;83;21917;-78
2022/10/16 05:06:41;;;;;;;14.75;7.47;;;;;;;5.68;67.17;101042.35;1692654;84;21072;-78
2022/10/16 05:09:08;;;;;;;12.15;7.87;;;;;;;5.71;67.15;101043.44;1692230;84;21096;-78
2022/10/16 05:11:34;;;;;;;11.10;6.83;;;;;;;5.75;67.08;101048.52;1729730;83;20999;-79
2022/10/16 05:14:01;;;;;;;10.98;7.10;;;;;;;5.79;67.06;101049.99;1701714;84;21089;-79
2022/10/16 05:16:27;;;;;;;12.50;7.95;;;;;;;5.80;67.02;101055.17;1704248;84;21566;-78
2022/10/16 05:18:56;;;;;;;10.35;6.90;;;;;;;5.82;67.06;101059.03;1702949;84;21042;-79
2022/10/16 05:21:23;;;;;;;9.25;7.28;;;;;;;5.85;66.96;101062.30;1720362;83;21565;-79
2022/10/16 05:23:49;;;;;;;12.20;7.53;;;;;;;5.88;66.94;101063.87;1696301;84;21648;-77
2022/10/16 05:26:16;;;;;;;10.58;7.65;;;;;;;5.90;66.79;101064.61;1719663;83;21018;-79
2022/10/16 05:28:43;;;;;;;11.30;7.87;;;;;;;5.95;66.72;101069.14;1699409;84;21115;-79
2022/10/16 05:31:11;;;;;;;12.07;7.85;;;;;;;5.99;66.59;101069.30;1704009;84;21523;-79
2022/10/16 05:33:38;;;;;;;11.95;7.60;;;;;;;6.04;66.49;101075.08;1679792;84;21043;-79
2022/10/16 05:36:07;;;;;;;10.90;7.58;;;;;;;6.08;66.41;101080.53;1669785;86;21003;-77
2022/10/16 05:38:36;;;;;;;11.70;7.83;;;;;;;6.14;66.24;101080.55;1670879;85;21022;-78
2022/10/16 05:41:04;;;;;;;11.80;7.47;;;;;;;6.22;66.10;101083.98;1675770;85;21174;-78
2022/10/16 05:43:31;;;;;;;11.40;7.45;;;;;;;6.29;65.93;101091.84;1679517;85;21022;-78
2022/10/16 05:46:05;;;;;;;12.80;7.95;;;;;;;6.34;65.70;101085.78;1681137;85;21019;-79
2022/10/16 05:48:32;;;;;;;13.75;8.10;;;;;;;6.40;65.64;101091.94;1682573;84;21633;-78
2022/10/16 05:51:03;;;;;;;11.10;7.92;;;;;;;6.45;65.31;101098.20;1692316;83;21097;-78
2022/10/16 05:53:32;;;;;;;9.98;7.47;;;;;;;6.49;65.13;101103.17;1680288;85;21175;-79
2022/10/16 05:55:58;;;;;;;8.00;7.17;;;;;;;6.54;65.04;101104.64;1679762;85;21074;-79
2022/10/16 05:58:31;;;;;;;12.43;7.55;;;;;;;6.59;64.97;101102.53;1695800;84;21056;-78
2022/10/16 06:01:04;;;;;;;10.45;7.00;;;;;;;6.68;64.80;101101.85;1695681;83;21041;-75
2022/10/16 06:03:31;;;;;;;11.30;7.30;;;;;;;6.78;64.50;101108.64;1699937;83;21616;-78
2022/10/16 06:05:58;;;;;;;11.88;7.62;;;;;;;6.83;64.39;101108.67;1694997;84;22254;-78
2022/10/16 06:08:25;;;;;;;15.28;7.85;;;;;;;6.91;64.14;101109.45;1668391;86;22098;-77
2022/10/16 06:11:07;;;;;;;10.95;7.78;;;;;;;7.00;63.75;101111.43;1668234;86;21238;-77
2022/10/16 06:13:33;;;;;;;8.95;6.97;;;;;;;7.07;63.70;101118.45;1668773;83;21069;-77
2022/10/16 06:16:00;;;;;;;10.48;7.83;;;;;;;7.13;63.46;101118.00;1732794;82;21024;-77
2022/10/16 06:18:27;;;;;;;11.22;7.58;;;;;;;7.22;63.31;101119.11;1668755;84;21484;-77
2022/10/16 06:20:54;;;;;;;12.10;8.40;;;;;;;7.28;63.27;101126.58;1725303;83;21028;-77
2022/10/16 06:23:21;;;;;;;9.73;6.95;;;;;;;7.40;63.10;101125.69;1733134;82;20997;-78
2022/10/16 06:25:47;;;;;;;10.70;6.90;;;;;;;7.51;62.69;101128.84;1696637;84;21053;-78
2022/10/16 06:28:14;;;;;;;11.22;7.87;;;;;;;7.59;62.39;101123.84;1716406;83;21080;-78
2022/10/16 06:30:43;;;;;;;9.08;7.53;;;;;;;7.67;62.06;101139.98;1723242;82;22038;-77
2022/10/16 06:33:11;;;;;;;13.95;7.58;;;;;;;7.76;61.97;101142.88;1694389;84;21496;-77
2022/10/16 06:35:37;;;;;;;9.93;7.45;;;;;;;7.85;61.75;101133.77;1664408;84;21053;-76
2022/10/16 06:38:04;;;;;;;11.00;7.17;;;;;;;7.93;61.04;101141.61;1705228;82;21018;-77
2022/10/16 06:40:31;;;;;;;11.00;7.83;;;;;;;7.96;61.06;101140.03;1732413;81;21172;-76
2022/10/16 06:42:58;;;;;;;10.05;7.40;;;;;;;8.00;61.07;101140.20;1726166;83;21211;-79
2022/10/16 06:45:26;;;;;;;10.25;6.87;;;;;;;8.06;60.87;101136.58;1725030;83;21113;-79
2022/10/16 06:47:52;;;;;;;11.43;7.62;;;;;;;8.12;60.51;101139.24;1725371;83;21528;-75
2022/10/16 06:50:18;;;;;;;13.43;7.03;;;;;;;8.15;60.46;101146.96;1708514;83;21041;-77
2022/10/16 06:52:45;;;;;;;17.32;7.50;;;;;;;8.19;60.47;101157.67;1725000;83;21046;-77
2022/10/16 06:55:12;;;;;;;11.70;7.05;;;;;;;8.25;60.17;101156.36;1725126;83;21153;-76
2022/10/16 06:57:39;;;;;;;12.50;7.37;;;;;;;8.29;60.00;101160.45;1703919;83;21031;-78
2022/10/16 07:00:06;;;;;;;9.30;7.55;;;;;;;8.35;59.99;101157.33;1694409;84;21633;-78
2022/10/16 07:02:33;;;;;;;17.02;8.58;;;;;;;8.43;59.99;101158.08;1697710;83;21526;-77
2022/10/16 07:05:00;;;;;;;11.22;6.78;;;;;;;8.50;60.03;101152.68;1724823;82;21045;-78
2022/10/16 07:07:26;;;;;;;12.55;7.78;;;;;;;8.59;59.80;101153.75;1724964;81;21271;-79
2022/10/16 07:09:52;;;;;;;12.18;7.15;;;;;;;8.68;59.68;101150.38;1725084;82;21053;-79
2022/10/16 07:12:20;;;;;;;14.47;7.58;;;;;;;8.80;59.30;101152.53;1724856;83;21054;-78
2022/10/16 07:14:47;;;;;;;14.28;8.05;;;;;;;8.87;59.10;101152.41;1708412;83;21186;-78
2022/10/16 07:17:14;;;;;;;14.35;7.80;;;;;;;8.96;58.93;101165.39;1694538;84;21024;-77
2022/10/16 07:19:41;;;;;;;18.12;8.33;;;;;;;9.05;58.35;101161.52;1694286;83;21889;-77
2022/10/16 07:22:07;;;;;;;12.70;7.00;;;;;;;9.11;58.09;101162.84;1718444;83;21033;-78
2022/10/16 07:24:34;;;;;;;11.03;6.37;;;;;;;9.16;58.03;101167.30;1724869;83;21053;-78
2022/10/16 07:27:00;;;;;;;11.78;7.15;;;;;;;9.23;57.84;101164.98;1710406;81;21069;-77
2022/10/16 07:29:27;;;;;;;11.43;7.12;;;;;;;9.30;57.51;101163.52;1696274;84;21041;-77
2022/10/16 07:31:53;;;;;;;9.25;6.58;;;;;;;9.36;57.28;101158.20;1697851;84;21131;-78
2022/10/16 07:34:21;;;;;;;7.80;6.10;;;;;;;9.43;57.04;101169.52;1699083;83;21077;-79
2022/10/16 07:36:50;;;;;;;12.00;6.92;;;;;;;9.51;56.93;101166.72;1725081;81;21112;-77
2022/10/16 07:39:17;;;;;;;10.85;7.15;;;;;;;9.67;56.71;101163.14;1725156;83;21006;-77
2022/10/16 07:41:45;;;;;;;9.28;6.22;;;;;;;9.78;56.40;101179.02;1719290;81;21050;-77
2022/10/16 07:44:12;;;;;;;12.85;6.42;;;;;;;9.90;56.30;101172.33;1712044;83;21313;-77
2022/10/16 07:46:38;;;;;;;11.43;7.08;;;;;;;10.04;56.27;101170.20;1712156;83;21022;-78
2022/10/16 07:49:05;;;;;;;12.43;6.65;;;;;;;10.17;55.77;101166.01;1698461;83;21096;-76
2022/10/16 07:51:32;;;;;;;13.38;6.35;;;;;;;10.30;55.31;101160.99;1682228;84;21319;-78
2022/10/16 07:53:59;;;;;;;11.50;7.07;;;;;;;10.42;55.02;101165.27;1696736;83;21609;-77
2022/10/16 07:56:26;;;;;;;15.00;6.25;;;;;;;10.51;54.50;101164.48;1711951;83;21968;-77
2022/10/16 07:58:53;;;;;;;16.10;7.17;;;;;;;10.62;54.07;101159.55;1712000;83;21069;-76
2022/10/16 08:01:20;;;;;;;10.80;6.08;;;;;;;10.74;53.84;101161.62;1712027;83;21019;-77
2022/10/16 08:03:49;;;;;;;14.73;6.10;;;;;;;10.85;53.77;101154.88;1691284;83;21019;-77
2022/10/16 08:06:17;;;;;;;8.83;6.05;;;;;;;11.02;53.79;101156.05;1711966;83;21035;-77
2022/10/16 08:08:44;;;;;;;9.45;6.33;;;;;;;11.20;53.19;101157.55;1681373;83;21875;-78
2022/10/16 08:11:10;;;;;;;8.78;6.45;;;;;;;11.34;52.86;101161.65;1683446;85;21019;-78
2022/10/16 08:13:38;;;;;;;7.15;5.87;;;;;;;11.48;52.94;101159.06;1683601;85;21065;-79
2022/10/16 08:16:07;;;;;;;8.40;5.53;;;;;;;11.69;52.67;101154.94;1674934;84;21195;-77
2022/10/16 08:18:35;;;;;;;7.03;5.87;;;;;;;11.91;51.82;101160.47;1692387;83;21070;-77
2022/10/16 08:21:04;;;;;;;9.15;5.97;;;;;;;12.11;50.99;101156.80;1725081;83;20952;-78
2022/10/16 08:23:32;;;;;;;9.23;5.80;;;;;;;12.30;49.99;101164.38;1733180;83;21516;-78
2022/10/16 08:26:05;;;;;;;10.60;5.80;;;;;;;12.44;50.14;101160.41;1725904;81;21101;-78
2022/10/16 08:28:33;;;;;;;9.05;5.33;;;;;;;12.61;49.65;101162.30;1730439;83;21344;-78
2022/10/16 08:31:14;;;;;;;11.08;6.97;;;;;;;12.75;49.08;101155.17;1730343;82;21069;-76
2022/10/16 08:33:44;;;;;;;9.15;5.60;;;;;;;12.89;49.30;101156.50;1730374;81;21244;-78
2022/10/16 08:36:11;;;;;;;8.00;6.25;;;;;;;13.16;48.98;101155.64;1730426;83;21034;-78
2022/10/16 08:38:38;;;;;;;9.60;6.60;;;;;;;13.44;48.37;101153.44;1729585;81;21021;-78
2022/10/16 08:41:31;;;;;;;10.08;7.00;;;;;;;13.70;48.17;101161.53;1730295;81;21003;-76
2022/10/16 08:44:17;;;;;;;;;;;;;;;13.98;47.75;101158.73;1732695;83;21022;-77
2022/10/16 08:47:09;;;;;;;8.90;5.55;;;;;;;14.28;45.95;101161.45;1729545;83;21150;-78
2022/10/16 08:49:36;;;;;;;8.83;5.90;;;;;;;14.45;45.72;101157.05;1727424;83;21000;-77
2022/10/16 08:52:02;;;;;;;11.70;6.40;;;;;;;14.69;45.37;101159.86;1730268;83;21009;-76
2022/10/16 08:54:36;;;;;;;12.82;6.22;;;;;;;14.96;44.70;101163.82;1730242;83;21542;-78
2022/10/16 08:57:18;;;;;;;14.60;6.03;;;;;;;15.15;44.60;101159.52;1730313;83;21042;-77
2022/10/16 08:59:44;;;;;;;9.48;4.87;;;;;;;15.50;44.49;101154.91;1730552;83;21139;-78
2022/10/16 09:02:25;;;;;;;12.30;6.35;;;;;;;16.01;43.61;101154.27;1730340;83;21090;-78
2022/10/16 09:05:26;;;;;;;8.70;5.50;;;;;;;16.53;43.02;101146.77;1728580;83;21037;-77
2022/10/16 09:08:10;;;;;;;6.42;4.87;;;;;;;17.15;41.81;101150.86;1730185;82;21091;-76
2022/10/16 09:10:50;;;;;;;9.43;4.83;;;;;;;17.86;40.77;101158.27;1730770;83;21045;-79
2022/10/16 09:13:38;;;;;;;8.70;4.95;;;;;;;18.46;39.82;101163.22;1731380;83;21159;-78
2022/10/16 09:16:21;;;;;;;5.65;4.08;;;;;;;19.18;38.60;101172.47;1730393;83;21058;-79
2022/10/16 09:19:13;;;;;;;8.75;4.67;;;;;;;19.75;37.04;101159.99;1730426;83;21026;-77
2022/10/16 09:21:44;;;;;;;4.72;4.25;;;;;;;20.29;36.82;101167.16;1730305;83;21573;-77
2022/10/16 09:24:20;;;;;;;5.42;4.17;;;;;;;20.69;35.97;101168.78;1730132;83;21067;-77
2022/10/16 09:26:47;;;;;;;5.22;4.08;;;;;;;21.09;35.95;101168.40;1730252;83;21195;-78
2022/10/16 09:29:15;;;;;;;6.92;4.65;;;;;;;21.72;34.48;101161.39;1729887;82;21037;-76
2022/10/16 09:31:42;;;;;;;5.03;4.20;;;;;;;22.11;34.21;101170.53;1730681;81;21011;-78
2022/10/16 09:34:32;;;;;;;6.75;4.15;;;;;;;22.34;33.97;101168.77;1730226;83;21129;-78
2022/10/16 09:36:59;;;;;;;5.22;4.50;;;;;;;22.74;33.32;101170.02;1730137;83;21527;-79
2022/10/16 09:39:26;;;;;;;4.87;4.20;;;;;;;23.25;32.55;101160.73;1730253;81;21539;-77
2022/10/16 09:41:52;;;;;;;4.72;3.87;;;;;;;23.46;32.36;101145.48;1700359;83;20988;-78
2022/10/16 09:44:26;;;;;;;5.62;3.85;;;;;;;23.75;32.29;101139.92;1730552;81;21111;-78
2022/10/16 09:47:12;;;;;;;4.80;3.87;;;;;;;24.20;31.90;101144.88;1730195;83;21079;-78
2022/10/16 09:49:54;;;;;;;5.78;4.20;;;;;;;24.57;31.30;101137.63;1730364;83;21075;-80
2022/10/16 09:52:21;;;;;;;4.53;4.12;;;;;;;25.00;30.86;101131.22;1730326;83;21702;-78
2022/10/16 09:54:53;;;;;;;6.12;4.40;;;;;;;25.26;30.31;101128.66;1730405;83;21143;-80
2022/10/16 09:57:22;;;;;;;4.72;4.30;;;;;;;25.54;30.23;101125.86;1730947;83;21545;-79
2022/10/16 09:59:53;;;;;;;4.87;4.33;;;;;;;25.82;29.70;101135.22;1731195;81;21006;-78
2022/10/16 10:02:31;;;;;;;6.20;5.15;;;;;;;25.77;29.48;101122.34;1732716;83;21547;-78
2022/10/16 10:04:58;;;;;;;5.70;4.20;;;;;;;25.74;29.58;101119.25;1728533;83;21110;-77
2022/10/16 10:07:33;;;;;;;6.28;4.65;;;;;;;25.94;29.77;101115.69;1731354;83;21003;-79
2022/10/16 10:10:00;;;;;;;7.45;4.20;;;;;;;26.55;29.16;101120.81;1730862;83;21522;-78
2022/10/16 10:14:15;;;;;;;7.03;5.53;;;;;;;26.88;28.45;101107.31;1789676;79;22504;-78
2022/10/16 10:16:41;;;;;;;7.20;5.30;;;;;;;26.36;28.80;101096.44;1732382;81;21012;-78
2022/10/16 10:19:18;;;;;;;4.47;4.08;;;;;;;26.31;29.21;101085.97;1757150;81;21268;-78
2022/10/16 10:21:45;;;;;;;6.25;5.00;;;;;;;26.59;29.00;101096.94;1756392;81;21045;-75
2022/10/16 10:24:15;;;;;;;5.55;4.78;;;;;;;26.77;28.48;101085.56;1756724;81;21530;-77
2022/10/16 10:27:11;;;;;;;4.55;4.15;;;;;;;26.76;28.37;101081.20;1755915;81;21117;-78
2022/10/16 10:29:47;;;;;;;5.45;4.90;;;;;;;26.91;28.43;101071.09;1757164;81;21085;-78
2022/10/16 10:32:36;;;;;;;4.95;4.53;;;;;;;27.19;28.24;101084.70;1754020;81;21251;-78
2022/10/16 10:35:16;;;;;;;5.80;4.30;;;;;;;27.40;28.34;101081.81;1752660;81;21506;-79
2022/10/16 10:38:03;;;;;;;11.38;5.78;;;;;;;27.85;27.67;101087.71;1757723;81;21033;-80
2022/10/16 10:41:12;;;;;;;7.25;4.70;;;;;;;27.87;27.50;101080.61;1756017;81;21035;-79
2022/10/16 10:43:57;;;;;;;5.20;4.55;;;;;;;27.45;28.05;101074.27;1755502;81;21022;-80
2022/10/16 10:46:36;;;;;;;5.80;4.85;;;;;;;27.44;27.96;101069.87;1753415;81;21864;-79
2022/10/16 10:49:49;;;;;;;5.78;5.03;;;;;;;27.49;28.09;101066.38;1750767;81;20998;-79
2022/10/16 10:52:34;;;;;;;9.88;4.80;;;;;;;28.00;27.30;101069.36;1728559;82;20962;-76
2022/10/16 10:55:21;;;;;;;7.10;4.20;;;;;;;28.26;27.19;101079.80;1668292;81;21125;-77
2022/10/16 10:58:12;;;;;;;6.25;5.10;;;;;;;28.47;26.59;101071.31;1758512;81;21053;-79
2022/10/16 11:01:01;;;;;;;5.90;4.17;;;;;;;28.62;26.54;101079.73;1757183;81;21524;-79
2022/10/16 11:04:07;;;;;;;6.47;4.47;;;;;;;28.76;26.70;101089.20;1751003;81;21139;-79
2022/10/16 11:06:40;;;;;;;5.42;4.42;;;;;;;29.00;26.41;101073.29;1749233;81;21041;-79
2022/10/16 11:09:38;;;;;;;6.60;4.12;;;;;;;29.39;26.12;101073.66;1757009;81;21244;-78
2022/10/16 11:12:30;;;;;;;8.03;4.25;;;;;;;29.83;25.68;101076.20;1740073;81;21008;-80
2022/10/16 11:15:15;;;;;;;4.20;3.77;;;;;;;30.40;25.32;101084.16;1730337;82;21153;-79
2022/10/16 11:18:03;;;;;;;5.25;4.47;;;;;;;31.00;24.63;101087.36;1733731;82;21023;-79
2022/10/16 11:20:34;;;;;;;5.05;4.10;;;;;;;30.95;24.56;101085.45;1705951;82;21536;-78
2022/10/16 11:23:09;;;;;;;6.65;4.08;;;;;;;30.72;24.55;101092.78;1704023;83;21008;-80
2022/10/16 11:25:36;;;;;;;4.35;3.90;;;;;;;30.48;24.51;101089.67;1713940;82;21034;-78
2022/10/16 11:28:23;;;;;;;6.05;4.08;;;;;;;30.22;24.80;101085.44;1714210;82;21139;-80
2022/10/16 11:31:05;;;;;;;4.05;3.65;;;;;;;30.41;24.85;101094.61;1719836;82;21168;-76
2022/10/16 11:33:43;;;;;;;6.03;3.77;;;;;;;31.01;24.13;101100.55;1713814;83;21097;-79
2022/10/16 11:36:28;;;;;;;4.75;4.08;;;;;;;31.48;23.88;101100.88;1713860;82;21050;-78
2022/10/16 11:39:24;;;;;;;4.15;3.72;;;;;;;32.03;23.67;101098.36;1714104;83;21086;-79
2022/10/16 11:42:09;;;;;;;4.05;3.65;;;;;;;32.33;23.32;101097.41;1654571;85;21163;-77
2022/10/16 11:45:02;;;;;;;7.17;4.08;;;;;;;31.93;23.42;101090.38;1657033;85;21043;-76
2022/10/16 11:47:37;;;;;;;8.20;3.52;;;;;;;31.77;23.70;101093.43;1695288;84;21307;-77
2022/10/16 11:50:48;;;;;;;8.35;4.05;;;;;;;31.99;23.54;101086.22;1743726;82;21022;-77